Terminal Aerodrome Forecast
Issued by NWS

Home | Current Version | Previous Version | Text Only | Print | Product List | Glossary On
Versions: 1 2 3 4 5 6 7 8 9 10 11 12 13 14 15 16 17 18 19 20 21 22 23
000
FTUS41 KRLX 082332
TAFCKB
TAF
KCKB 082332Z 0900/0924 27007KT P6SM OVC015
      TEMPO 0901/0903 26010G22KT 2SM -SN OVC015
     FM090400 23005KT 2SM -SHSN BR OVC015
     FM090800 22010G20KT 1SM -SN BR OVC008
     FM091400 23009KT 2SM -SN BR OVC015
     FM091600 25010G20KT 2SM -SHSN OVC015=

USA.gov is the U.S. government's official web portal to all federal, state and local government web resources and services.